Time;durP1;ratioP1;P1;durP2;ratioP2;P2;SDS_P1;SDS_P2;PMS_P1;PMS_P2;Temp;Humidity;BMP_temperature;BMP_pressure;BME280_temperature;BME280_humidity;BME280_pressure;Samples;Min_cycle;Max_cycle;Signal;HPM_P1;HPM_P2
2022/01/03 00:02:31;;;;;;;33.80;19.65;;;;;;;9.08;73.84;100397.19;5360527;32;34662;-68
2022/01/03 00:05:53;;;;;;;37.03;20.97;;;;;;;9.34;73.41;100396.34;5361529;32;34269;-61
2022/01/03 00:08:56;;;;;;;36.93;21.60;;;;;;;8.74;77.14;100392.19;5382822;32;35224;-61
2022/01/03 00:11:59;;;;;;;36.22;21.85;;;;;;;8.43;77.22;100384.41;5377885;32;34763;-62
2022/01/03 00:15:04;;;;;;;35.05;20.42;;;;;;;8.52;77.05;100385.00;5369163;32;34382;-62
2022/01/03 00:18:08;;;;;;;38.10;20.67;;;;;;;9.01;74.14;100388.69;5385582;32;34197;-62
2022/01/03 00:21:13;;;;;;;35.67;21.43;;;;;;;9.36;73.03;100381.44;5383756;32;34588;-68
2022/01/03 00:24:24;;;;;;;40.83;20.47;;;;;;;8.93;74.67;100383.69;5383580;32;36115;-68
2022/01/03 00:27:58;;;;;;;39.13;21.37;;;;;;;8.97;73.99;100381.00;5382430;32;34930;-60
2022/01/03 00:31:01;;;;;;;35.57;20.27;;;;;;;8.60;75.17;100385.63;5375944;32;34325;-60
2022/01/03 00:34:09;;;;;;;35.20;21.12;;;;;;;9.31;72.02;100383.34;5389806;32;34471;-66
2022/01/03 00:37:11;;;;;;;37.13;21.73;;;;;;;8.20;76.74;100372.00;5367021;32;34219;-67
2022/01/03 00:40:17;;;;;;;34.80;20.83;;;;;;;8.12;77.20;100375.69;5359845;32;34623;-62
2022/01/03 00:43:20;;;;;;;37.30;22.27;;;;;;;8.39;77.32;100368.81;5378378;32;34691;-68
2022/01/03 00:46:23;;;;;;;36.97;21.52;;;;;;;7.77;78.84;100367.97;5386990;32;34082;-66
2022/01/03 00:49:26;;;;;;;;;;;;;;;7.67;79.26;100362.16;5392040;32;34261;-61
2022/01/03 00:52:30;;;;;;;36.97;21.63;;;;;;;8.40;77.53;100359.19;5383298;32;34034;-62
2022/01/03 00:55:33;;;;;;;38.15;21.50;;;;;;;8.10;77.14;100359.16;5371456;32;32749;-61
2022/01/03 00:59:06;;;;;;;40.63;23.30;;;;;;;7.95;77.07;100364.84;5368786;32;33808;-61
2022/01/03 01:02:10;;;;;;;36.63;20.48;;;;;;;8.08;78.92;100365.34;5389336;32;33210;-68
2022/01/03 01:05:14;;;;;;;34.20;20.50;;;;;;;8.89;73.87;100362.91;5376342;32;34510;-62
2022/01/03 01:08:22;;;;;;;35.60;20.23;;;;;;;7.96;77.10;100369.19;5362357;32;33919;-67
2022/01/03 01:11:28;;;;;;;35.00;21.53;;;;;;;8.08;77.70;100363.59;5376419;32;35834;-61
2022/01/03 01:14:30;;;;;;;37.00;21.40;;;;;;;7.96;77.19;100381.41;5377356;32;34865;-68
2022/01/03 01:17:34;;;;;;;36.40;20.23;;;;;;;7.48;79.90;100374.03;5376057;32;33925;-62
2022/01/03 01:20:39;;;;;;;35.40;21.37;;;;;;;9.06;72.78;100363.19;5364586;32;35009;-61
2022/01/03 01:23:44;;;;;;;37.37;20.47;;;;;;;9.12;71.92;100365.59;5385063;32;33698;-61
2022/01/03 01:30:11;;;;;;;36.07;19.73;;;;;;;9.02;71.90;100366.81;5388431;32;34224;-66
2022/01/03 01:33:15;;;;;;;32.57;19.20;;;;;;;7.99;75.74;100370.88;5377028;32;34253;-67
2022/01/03 01:36:42;;;;;;;34.23;20.50;;;;;;;8.06;75.63;100369.78;5374386;32;35436;-67
2022/01/03 01:39:47;;;;;;;36.13;19.47;;;;;;;8.80;73.34;100360.56;5368184;32;33270;-62
2022/01/03 01:42:52;;;;;;;32.17;18.07;;;;;;;8.17;74.86;100343.28;5369415;32;35037;-62
2022/01/03 01:45:56;;;;;;;30.50;19.03;;;;;;;8.99;71.32;100340.69;5374695;32;33660;-66
2022/01/03 01:49:03;;;;;;;34.50;18.43;;;;;;;8.88;71.47;100338.41;5370907;32;33079;-62
2022/01/03 01:52:21;;;;;;;33.00;18.63;;;;;;;8.71;72.16;100338.13;5382068;32;33784;-67
2022/01/03 01:55:24;;;;;;;32.03;18.50;;;;;;;8.16;73.26;100337.19;5382282;32;34352;-61
2022/01/03 01:58:28;;;;;;;31.93;18.53;;;;;;;8.79;71.88;100340.50;5388864;32;35404;-67
2022/01/03 02:01:57;;;;;;;33.13;18.97;;;;;;;8.02;73.72;100337.59;5387984;32;32850;-62
2022/01/03 02:05:30;;;;;;;31.83;19.23;;;;;;;7.89;74.54;100333.62;5381105;32;33024;-68
2022/01/03 02:08:39;;;;;;;36.33;20.23;;;;;;;8.58;71.91;100331.56;5389952;32;35113;-61
2022/01/03 02:11:49;;;;;;;34.17;19.43;;;;;;;8.28;71.83;100342.03;5373616;32;34128;-67
2022/01/03 02:14:56;;;;;;;32.67;18.97;;;;;;;7.70;74.79;100340.28;5369524;32;34070;-61
2022/01/03 02:18:00;;;;;;;31.37;19.67;;;;;;;7.65;75.48;100336.94;5366039;32;34971;-69
2022/01/03 02:21:03;;;;;;;30.37;18.33;;;;;;;8.93;69.51;100344.38;5389107;32;35087;-61
2022/01/03 02:24:07;;;;;;;31.53;18.70;;;;;;;9.00;68.59;100342.41;5355247;32;35474;-61
2022/01/03 02:27:11;;;;;;;31.17;17.87;;;;;;;8.88;68.93;100354.16;5371408;32;35959;-66
2022/01/03 02:30:18;;;;;;;30.53;18.17;;;;;;;8.91;68.67;100343.56;5353221;32;32994;-68
2022/01/03 02:33:20;;;;;;;29.90;17.50;;;;;;;8.53;70.51;100346.56;5372372;32;33076;-61
2022/01/03 02:36:24;;;;;;;30.13;18.30;;;;;;;8.85;68.70;100327.19;5383447;32;35312;-67
2022/01/03 02:39:27;;;;;;;29.50;17.60;;;;;;;7.87;72.71;100335.44;5378362;32;34101;-67
2022/01/03 02:42:30;;;;;;;31.40;16.80;;;;;;;7.75;73.37;100333.16;5390801;32;34891;-61
2022/01/03 02:45:32;;;;;;;30.90;17.33;;;;;;;7.62;74.94;100329.19;5389814;32;34754;-62
2022/01/03 02:48:35;;;;;;;29.98;16.95;;;;;;;8.25;71.26;100328.22;5386938;32;34145;-62
2022/01/03 02:51:39;;;;;;;29.60;17.12;;;;;;;8.58;68.79;100334.19;5350079;32;33072;-62
2022/01/03 02:54:41;;;;;;;27.83;16.67;;;;;;;7.67;71.50;100343.00;5353615;32;34682;-68
2022/01/03 02:57:46;;;;;;;29.80;16.90;;;;;;;7.79;71.37;100353.97;5353946;32;34092;-68
2022/01/03 03:00:50;;;;;;;26.63;15.83;;;;;;;7.49;73.23;100352.19;5378047;32;33870;-62
2022/01/03 03:03:52;;;;;;;27.80;17.60;;;;;;;7.26;76.07;100344.94;5356307;32;34610;-61
2022/01/03 03:06:55;;;;;;;28.53;17.03;;;;;;;7.02;76.39;100338.63;5371984;32;34507;-66
2022/01/03 03:09:58;;;;;;;30.73;17.80;;;;;;;7.40;74.83;100352.41;5394021;32;34729;-67
2022/01/03 03:13:02;;;;;;;26.57;16.50;;;;;;;6.94;76.69;100345.75;5390534;32;33954;-61
2022/01/03 03:16:04;;;;;;;28.50;16.87;;;;;;;6.73;78.05;100341.94;5364595;32;34414;-66
2022/01/03 03:19:09;;;;;;;27.70;16.00;;;;;;;8.08;71.37;100331.31;5373541;32;35018;-67
2022/01/03 03:22:12;;;;;;;28.43;16.50;;;;;;;8.58;69.76;100321.94;5371836;32;33229;-61
2022/01/03 03:25:20;;;;;;;30.50;17.40;;;;;;;8.66;68.75;100319.06;5384793;32;34716;-62
2022/01/03 03:28:27;;;;;;;26.03;15.30;;;;;;;8.98;67.36;100317.16;5389309;32;32758;-67
2022/01/03 03:31:30;;;;;;;28.07;16.63;;;;;;;8.61;68.81;100307.87;5362834;32;33051;-61
2022/01/03 03:34:33;;;;;;;26.73;15.48;;;;;;;8.19;69.95;100318.78;5358047;32;35590;-66
2022/01/03 03:37:36;;;;;;;26.53;15.77;;;;;;;7.23;74.92;100311.91;5368445;32;34863;-69
2022/01/03 03:40:40;;;;;;;;;;;;;;;7.53;74.38;100315.44;5371179;32;34641;-69
2022/01/03 03:43:43;;;;;;;27.98;16.30;;;;;;;8.31;71.10;100296.59;5390823;32;33500;-60
2022/01/03 03:46:46;;;;;;;27.23;15.20;;;;;;;8.22;70.79;100295.09;5366714;32;34219;-67
2022/01/03 03:49:49;;;;;;;25.37;15.23;;;;;;;8.50;69.36;100303.00;5381195;32;34447;-62
2022/01/03 03:52:52;;;;;;;25.70;15.97;;;;;;;7.74;71.97;100303.53;5384600;32;32716;-67
2022/01/03 03:55:55;;;;;;;24.17;14.60;;;;;;;8.77;68.03;100319.59;5383534;32;33208;-61
2022/01/03 03:59:00;;;;;;;27.80;15.47;;;;;;;8.52;68.42;100308.19;5385249;32;33864;-61
2022/01/03 04:02:03;;;;;;;26.70;15.53;;;;;;;7.47;72.23;100326.09;5366152;32;33983;-61
2022/01/03 04:05:08;;;;;;;26.75;16.00;;;;;;;7.00;73.90;100315.09;5361632;32;34691;-61
2022/01/03 04:08:11;;;;;;;25.30;14.97;;;;;;;7.54;73.28;100322.41;5378534;32;34777;-62
2022/01/03 04:11:14;;;;;;;24.90;14.48;;;;;;;7.65;73.26;100310.75;5374668;32;34079;-62
2022/01/03 04:14:19;;;;;;;26.73;14.63;;;;;;;7.90;69.81;100298.69;5367774;32;34139;-61
2022/01/03 04:17:28;;;;;;;25.23;15.03;;;;;;;8.06;70.66;100292.13;5354910;32;33600;-62
2022/01/03 04:20:32;;;;;;;25.67;15.00;;;;;;;7.87;71.89;100304.03;5353541;32;33945;-67
2022/01/03 04:23:35;;;;;;;25.10;14.03;;;;;;;7.49;72.78;100303.38;5395933;32;34087;-61
2022/01/03 04:26:39;;;;;;;26.40;15.33;;;;;;;8.21;69.74;100295.16;5372540;32;34357;-67
2022/01/03 04:29:43;;;;;;;23.33;13.73;;;;;;;7.58;71.60;100307.47;5365543;32;33199;-61
2022/01/03 04:32:47;;;;;;;26.10;15.17;;;;;;;7.50;71.89;100304.22;5352605;32;34067;-62
2022/01/03 04:35:53;;;;;;;24.57;14.33;;;;;;;6.98;74.15;100309.06;5346407;32;33609;-69
2022/01/03 04:38:55;;;;;;;26.80;14.47;;;;;;;7.50;72.49;100309.44;5385143;32;34187;-67
2022/01/03 04:41:58;;;;;;;24.03;13.63;;;;;;;7.75;71.41;100322.69;5383888;32;34953;-61
2022/01/03 04:45:02;;;;;;;22.98;13.35;;;;;;;7.60;72.39;100306.53;5371374;32;34119;-67
2022/01/03 04:48:05;;;;;;;24.73;13.55;;;;;;;7.81;71.36;100302.44;5362469;32;34694;-68
2022/01/03 04:51:11;;;;;;;22.90;13.68;;;;;;;7.87;71.43;100294.41;5375611;32;32729;-69
2022/01/03 04:54:13;;;;;;;22.37;13.80;;;;;;;8.76;67.03;100296.03;5360470;32;35589;-62
2022/01/03 04:57:17;;;;;;;27.48;13.95;;;;;;;8.40;67.93;100291.94;5368731;32;34203;-68
2022/01/03 05:00:20;;;;;;;25.80;13.77;;;;;;;7.79;69.76;100292.91;5359480;32;34767;-61
2022/01/03 05:03:22;;;;;;;20.92;13.20;;;;;;;8.37;68.78;100299.03;5370212;32;34841;-66
2022/01/03 05:06:29;;;;;;;27.90;13.83;;;;;;;7.91;70.67;100287.31;5376097;32;32985;-68
2022/01/03 05:09:34;;;;;;;22.20;13.73;;;;;;;7.92;70.49;100294.28;5356650;32;32951;-61
2022/01/03 05:12:38;;;;;;;23.27;13.75;;;;;;;8.81;67.20;100287.13;5344799;32;33778;-61
2022/01/03 05:15:40;;;;;;;24.77;14.00;;;;;;;9.12;65.68;100289.56;5372839;32;34436;-60
2022/01/03 05:18:43;;;;;;;22.95;13.82;;;;;;;8.42;67.91;100284.03;5380266;32;32841;-68
2022/01/03 05:21:46;;;;;;;23.77;13.75;;;;;;;8.55;68.39;100272.25;5353049;32;34217;-66
2022/01/03 05:24:53;;;;;;;22.73;13.70;;;;;;;8.91;66.92;100254.47;5386740;32;35464;-61
2022/01/03 05:27:58;;;;;;;22.83;13.10;;;;;;;9.05;65.76;100251.34;5363112;32;33789;-68
2022/01/03 05:31:01;;;;;;;24.27;13.40;;;;;;;9.22;65.49;100243.75;5371180;32;35597;-61
2022/01/03 05:34:04;;;;;;;25.13;13.60;;;;;;;9.45;64.15;100253.41;5391772;32;35123;-62
2022/01/03 05:37:07;;;;;;;23.48;13.75;;;;;;;9.57;64.27;100244.22;5356801;32;34237;-60
2022/01/03 05:40:11;;;;;;;21.17;12.20;;;;;;;9.23;65.13;100255.09;5384027;32;34576;-67
2022/01/03 05:43:15;;;;;;;22.07;13.27;;;;;;;9.81;63.15;100239.84;5386477;32;34958;-66
2022/01/03 05:46:17;;;;;;;25.23;15.20;;;;;;;8.91;65.32;100249.22;5355957;32;32815;-61
2022/01/03 05:49:23;;;;;;;24.27;13.10;;;;;;;9.40;63.71;100239.63;5384360;32;33947;-68
2022/01/03 05:52:26;;;;;;;22.53;13.20;;;;;;;9.91;62.60;100233.28;5384224;32;34128;-67
2022/01/03 05:55:32;;;;;;;23.37;13.33;;;;;;;9.98;62.53;100236.53;5383179;32;34240;-61
2022/01/03 05:58:35;;;;;;;21.37;12.80;;;;;;;10.13;61.73;100232.47;5401459;32;35152;-67
2022/01/03 06:01:39;;;;;;;20.52;12.20;;;;;;;9.92;62.98;100248.16;5365339;32;34841;-61
2022/01/03 06:07:55;;;;;;;23.80;12.55;;;;;;;9.97;62.34;100247.97;5370803;32;34401;-68
2022/01/03 06:10:59;;;;;;;20.67;12.03;;;;;;;9.93;62.45;100247.25;5354436;32;34939;-61
2022/01/03 06:14:02;;;;;;;22.98;12.40;;;;;;;9.66;63.56;100253.53;5393208;32;32982;-66
2022/01/03 06:17:10;;;;;;;19.67;10.93;;;;;;;10.34;60.98;100255.28;5376378;32;34888;-61
2022/01/03 06:20:13;;;;;;;25.80;14.70;;;;;;;10.18;61.42;100249.78;5385032;32;32853;-61
2022/01/03 06:23:22;;;;;;;24.70;12.48;;;;;;;10.20;62.05;100253.19;5381306;32;35263;-67
2022/01/03 06:26:25;;;;;;;23.20;12.60;;;;;;;10.39;61.62;100257.75;5341088;32;34392;-61
2022/01/03 06:29:28;;;;;;;20.70;12.33;;;;;;;10.89;60.17;100250.41;5405651;32;34140;-67
2022/01/03 06:32:30;;;;;;;24.67;13.70;;;;;;;10.57;61.87;100241.22;5362865;32;33936;-63
2022/01/03 06:35:33;;;;;;;23.67;13.32;;;;;;;10.40;62.52;100228.78;5377401;32;34396;-62
2022/01/03 06:38:37;;;;;;;20.05;11.90;;;;;;;10.51;64.16;100244.09;5379906;32;33617;-62
2022/01/03 06:41:52;;;;;;;23.27;13.57;;;;;;;11.06;62.90;100244.37;5364073;32;34308;-66
2022/01/03 06:45:16;;;;;;;26.53;13.73;;;;;;;11.44;61.24;100247.13;5398360;32;35990;-66
2022/01/03 06:48:33;;;;;;;10.67;5.23;;;;;;;11.84;58.47;100265.47;5353403;32;34637;-61
2022/01/03 06:51:36;;;;;;;9.32;4.57;;;;;;;11.19;58.25;100286.81;5369721;32;34100;-71
2022/01/03 06:54:39;;;;;;;13.03;4.43;;;;;;;11.49;57.25;100288.09;5357374;32;34143;-67
2022/01/03 06:57:41;;;;;;;9.13;2.62;;;;;;;11.96;55.83;100274.59;5663085;27;33298;-84
2022/01/03 07:00:43;;;;;;;7.57;2.30;;;;;;;12.37;53.61;100280.53;5382143;32;34073;-75
2022/01/03 07:03:48;;;;;;;6.53;2.40;;;;;;;12.43;52.29;100272.34;5343084;32;34125;-88
2022/01/03 07:06:53;;;;;;;6.63;2.50;;;;;;;12.92;50.97;100275.16;5339955;32;34464;-89
2022/01/03 07:09:58;;;;;;;7.50;2.37;;;;;;;12.63;51.18;100259.97;5350458;32;36067;-75
2022/01/03 07:13:02;;;;;;;5.97;2.40;;;;;;;13.01;50.35;100248.34;5365068;32;32870;-87
2022/01/03 07:19:25;;;;;;;8.20;2.40;;;;;;;12.66;50.49;100257.16;5370610;32;34077;-75
2022/01/03 07:22:28;;;;;;;9.10;2.50;;;;;;;13.11;49.52;100237.28;5351947;32;34854;-90
2022/01/03 07:25:30;;;;;;;8.53;2.63;;;;;;;13.00;49.75;100257.16;5363293;32;34302;-76
2022/01/03 07:28:33;;;;;;;6.67;2.57;;;;;;;12.71;50.39;100245.47;5346898;32;35986;-88
2022/01/03 07:31:35;;;;;;;6.17;2.30;;;;;;;12.88;50.01;100249.91;5369688;32;33969;-89
2022/01/03 07:34:37;;;;;;;4.87;1.90;;;;;;;13.25;48.39;100248.00;5346127;32;33741;-75
2022/01/03 07:37:40;;;;;;;8.37;2.10;;;;;;;13.40;48.11;100257.78;5364267;32;34290;-92
2022/01/03 07:40:42;;;;;;;3.80;1.77;;;;;;;13.40;48.11;100239.31;5346977;32;34965;-75
2022/01/03 07:43:45;;;;;;;5.65;1.60;;;;;;;13.52;47.33;100241.31;5369371;32;34096;-90
2022/01/03 07:46:47;;;;;;;3.87;1.40;;;;;;;13.70;46.90;100238.56;5365996;32;33916;-76
2022/01/03 07:49:50;;;;;;;3.43;1.43;;;;;;;13.76;46.49;100225.03;5356375;32;34272;-88
2022/01/03 07:52:52;;;;;;;4.10;1.50;;;;;;;13.77;46.26;100237.31;5357194;32;34392;-77
2022/01/03 07:55:55;;;;;;;3.92;1.52;;;;;;;13.78;46.14;100239.00;5339610;32;35282;-87
2022/01/03 07:58:58;;;;;;;4.70;1.60;;;;;;;14.14;45.61;100227.34;5355532;32;35272;-76
2022/01/03 08:02:00;;;;;;;5.03;1.40;;;;;;;14.43;44.43;100262.72;5369538;32;35354;-86
2022/01/03 08:05:03;;;;;;;3.20;1.10;;;;;;;13.77;45.49;100240.78;5366366;32;35385;-85
2022/01/03 08:08:08;;;;;;;5.13;1.27;;;;;;;13.97;44.56;100244.97;5368015;32;34706;-75
2022/01/03 08:11:11;;;;;;;7.53;2.20;;;;;;;14.02;44.67;100231.53;5351468;32;35122;-75
2022/01/03 08:14:13;;;;;;;3.53;1.90;;;;;;;14.32;44.36;100242.19;5371056;32;34864;-76
2022/01/03 08:17:15;;;;;;;5.77;1.57;;;;;;;14.24;44.15;100247.06;5356921;32;35643;-87
2022/01/03 08:20:20;;;;;;;5.53;1.43;;;;;;;14.41;43.60;100254.84;5366006;32;33838;-75
2022/01/03 08:23:23;;;;;;;6.03;1.60;;;;;;;14.08;44.11;100281.41;5365892;32;33826;-75
2022/01/03 08:26:25;;;;;;;4.00;1.43;;;;;;;14.19;44.03;100254.37;5373599;32;33830;-74
2022/01/03 08:29:27;;;;;;;2.30;1.20;;;;;;;14.29;43.50;100222.03;5357535;32;33935;-84
2022/01/03 08:32:30;;;;;;;2.50;1.15;;;;;;;14.29;43.43;100240.53;5363369;32;33258;-74
2022/01/03 08:35:32;;;;;;;5.80;1.47;;;;;;;14.55;43.04;100256.75;5366477;32;34268;-75
2022/01/03 08:38:34;;;;;;;3.77;1.50;;;;;;;14.23;43.45;100247.97;5358464;32;35233;-86
2022/01/03 08:41:37;;;;;;;5.43;1.40;;;;;;;14.34;43.63;100240.28;5364338;32;34433;-85
2022/01/03 08:44:41;;;;;;;2.87;0.90;;;;;;;14.31;43.51;100248.41;5364271;32;35755;-87
2022/01/03 08:47:46;;;;;;;6.27;1.50;;;;;;;14.14;44.23;100230.84;5361894;32;35518;-76
2022/01/03 08:50:51;;;;;;;4.90;1.30;;;;;;;14.51;43.68;100244.66;5367129;32;35260;-85
2022/01/03 08:53:53;;;;;;;7.90;1.70;;;;;;;14.02;44.44;100237.66;5362799;32;35413;-78
2022/01/03 08:56:56;;;;;;;7.18;1.58;;;;;;;13.97;44.93;100249.41;5358181;32;32646;-74
2022/01/03 08:59:58;;;;;;;9.87;1.80;;;;;;;14.04;45.17;100266.66;5364942;32;34125;-88
2022/01/03 09:03:00;;;;;;;6.03;1.30;;;;;;;14.10;45.42;100268.94;5366322;32;32978;-87
2022/01/03 09:06:03;;;;;;;4.60;1.47;;;;;;;14.01;44.98;100288.81;5362199;32;34009;-87
2022/01/03 09:09:06;;;;;;;6.47;2.35;;;;;;;13.43;46.12;100240.91;5350507;32;34641;-87
2022/01/03 09:12:08;;;;;;;3.80;1.30;;;;;;;13.90;44.97;100267.41;5371658;32;34057;-88
2022/01/03 09:15:11;;;;;;;9.30;2.22;;;;;;;13.65;45.36;100270.50;5355197;32;34585;-88
2022/01/03 09:18:19;;;;;;;7.43;1.63;;;;;;;13.88;44.70;100292.22;5371277;32;33850;-74
2022/01/03 09:21:21;;;;;;;6.57;1.33;;;;;;;13.56;45.49;100260.44;5359997;32;33901;-75
2022/01/03 09:24:32;;;;;;;4.17;1.97;;;;;;;13.74;45.27;100255.97;5356207;32;36196;-87
2022/01/03 09:30:55;;;;;;;4.63;1.10;;;;;;;13.55;44.83;100278.09;5350691;32;36171;-75
2022/01/03 09:34:00;;;;;;;2.57;0.97;;;;;;;13.26;44.63;100300.72;5371765;32;33953;-75
2022/01/03 09:37:03;;;;;;;3.73;1.53;;;;;;;13.48;44.87;100286.41;5363448;32;33885;-75
2022/01/03 09:40:07;;;;;;;3.47;1.15;;;;;;;13.60;44.19;100269.06;5352361;32;168860;-76
2022/01/03 09:43:15;;;;;;;4.72;1.48;;;;;;;13.08;45.48;100275.25;5353106;32;34027;-90
2022/01/03 09:46:37;;;;;;;5.50;1.50;;;;;;;13.70;44.39;100267.63;5332932;32;34176;-75
2022/01/03 09:49:40;;;;;;;2.63;1.37;;;;;;;13.07;45.88;100248.94;5367132;32;34181;-75
2022/01/03 09:52:43;;;;;;;5.47;1.60;;;;;;;12.86;46.53;100253.53;5361804;32;34346;-87
2022/01/03 09:55:45;;;;;;;;;;;;;;;13.08;46.20;100248.03;5362495;32;34175;-76
2022/01/03 09:58:48;;;;;;;4.03;1.40;;;;;;;13.20;45.96;100231.53;5355822;32;34989;-87
2022/01/03 10:01:52;;;;;;;3.00;1.48;;;;;;;12.90;46.73;100229.56;5361530;32;35201;-86
2022/01/03 10:04:55;;;;;;;10.47;1.20;;;;;;;12.95;46.79;100224.06;5367915;32;35186;-86
2022/01/03 10:07:57;;;;;;;5.47;1.17;;;;;;;12.92;46.77;100227.69;5350524;32;34057;-86
2022/01/03 10:11:01;;;;;;;2.00;1.10;;;;;;;13.44;45.55;100209.16;5362610;32;35897;-76
2022/01/03 10:14:04;;;;;;;8.50;1.47;;;;;;;13.10;46.62;100219.75;5346495;32;35528;-86
2022/01/03 10:17:07;;;;;;;6.43;1.43;;;;;;;13.72;45.19;100213.81;5340102;32;33859;-75
2022/01/03 10:20:13;;;;;;;5.50;1.57;;;;;;;13.81;45.23;100223.00;5329497;32;32613;-78
2022/01/03 10:23:17;;;;;;;3.60;1.33;;;;;;;13.65;45.42;100233.53;5327772;32;34831;-77
2022/01/03 10:26:22;;;;;;;2.03;1.10;;;;;;;13.55;45.20;100222.63;5345522;32;34496;-74
2022/01/03 10:29:27;;;;;;;4.40;1.67;;;;;;;13.43;45.93;100225.09;5366969;32;33219;-75
2022/01/03 10:32:31;;;;;;;8.63;2.33;;;;;;;13.45;46.26;100218.78;5347213;32;34698;-89
2022/01/03 10:35:37;;;;;;;5.80;1.40;;;;;;;13.38;46.15;100216.53;5359401;32;32679;-87
2022/01/03 10:38:43;;;;;;;4.90;1.20;;;;;;;13.93;45.14;100195.91;5353149;32;35375;-88
2022/01/03 10:41:55;;;;;;;2.20;0.90;;;;;;;13.92;45.17;100193.37;5352754;32;34152;-86
2022/01/03 10:44:59;;;;;;;9.37;4.73;;;;;;;13.12;46.69;100173.88;5338741;32;34100;-82
2022/01/03 10:48:02;;;;;;;6.23;1.40;;;;;;;13.60;45.84;100168.72;5357975;32;34831;-87
2022/01/03 10:51:04;;;;;;;1.83;1.02;;;;;;;13.24;46.81;100173.25;5354449;32;35109;-86
2022/01/03 10:54:16;;;;;;;2.60;1.40;;;;;;;13.75;45.78;100176.66;5365573;32;34232;-90
2022/01/03 10:57:19;;;;;;;2.67;1.30;;;;;;;13.80;45.87;100160.56;5351224;32;35610;-86
2022/01/03 11:00:23;;;;;;;3.70;1.23;;;;;;;13.48;46.11;100147.34;5336903;32;35721;-75
2022/01/03 11:13:16;;;;;;;5.67;1.47;;;;;;;13.73;46.63;100156.56;5368311;32;34191;-88
2022/01/03 11:16:19;;;;;;;11.47;1.60;;;;;;;13.50;47.14;100156.00;5367763;32;36335;-88
2022/01/03 11:19:38;;;;;;;4.17;1.20;;;;;;;13.28;47.45;100137.03;5361071;32;34926;-76
2022/01/03 11:22:42;;;;;;;5.13;1.40;;;;;;;13.35;47.58;100134.91;5351968;32;34102;-75
2022/01/03 11:25:44;;;;;;;3.43;1.40;;;;;;;13.80;47.14;100126.22;5363821;32;34076;-86
2022/01/03 11:28:48;;;;;;;3.67;1.50;;;;;;;13.49;47.86;100127.06;5369955;32;35679;-88
2022/01/03 11:31:51;;;;;;;;;;;;;;;13.26;48.18;100136.22;5372351;32;34055;-74
2022/01/03 11:34:53;;;;;;;5.67;1.40;;;;;;;13.46;47.83;100137.78;5363535;32;35506;-85
2022/01/03 11:37:59;;;;;;;5.37;1.63;;;;;;;13.34;48.04;100127.91;5366548;32;34639;-87
2022/01/03 11:41:04;;;;;;;5.07;1.47;;;;;;;13.46;47.51;100138.66;5369000;32;34956;-75
2022/01/03 11:44:12;;;;;;;5.33;1.77;;;;;;;13.39;47.55;100150.47;5361394;32;34161;-75
2022/01/03 11:47:15;;;;;;;3.43;1.30;;;;;;;13.91;46.44;100144.97;5341518;32;35638;-74
2022/01/03 11:50:18;;;;;;;2.70;1.27;;;;;;;13.48;47.36;100136.78;5400387;26;36145;-96
2022/01/03 11:53:23;;;;;;;2.57;1.20;;;;;;;13.42;46.98;100118.63;5386608;27;34126;-76
2022/01/03 11:56:28;;;;;;;5.33;1.80;;;;;;;13.73;46.09;100123.06;5409078;32;35202;-77
2022/01/03 12:04:20;;;;;;;3.97;1.10;;;;;;;13.09;46.98;100107.25;5379294;32;34712;-76
2022/01/03 12:28:17;;;;;;;1.67;1.00;;;;;;;13.19;45.57;100104.00;5357488;32;35793;-81
2022/01/03 12:44:17;;;;;;;;;;;;;;;;;;;;;
2022/01/03 12:48:21;;;;;;;2.97;1.17;;;;;;;12.95;47.12;100151.03;5352448;32;36177;-74
2022/01/03 12:57:01;;;;;;;2.87;1.10;;;;;;;13.23;47.34;100158.38;5345052;33;35623;-81
2022/01/03 13:11:46;;;;;;;7.83;1.67;;;;;;;13.37;46.87;100170.81;5343796;33;35027;-84
2022/01/03 13:22:26;;;;;;;;;;;;;;;;;;;;;
2022/01/03 14:34:36;;;;;;;3.60;1.13;;;;;;;13.41;45.90;100234.88;5339225;33;35289;-86
2022/01/03 14:38:33;;;;;;;2.60;1.20;;;;;;;14.08;44.60;100233.81;5347164;33;36372;-69
2022/01/03 14:41:47;;;;;;;4.30;1.20;;;;;;;13.84;45.37;100230.75;5347318;33;34154;-77
2022/01/03 15:08:17;;;;;;;4.20;1.50;;;;;;;12.69;48.55;100251.75;5349221;33;34098;-75
2022/01/03 15:15:20;;;;;;;4.63;1.53;;;;;;;12.99;48.11;100254.59;5338383;33;35637;-77
2022/01/03 16:07:21;;;;;;;8.00;1.80;;;;;;;12.85;49.30;100272.91;5364718;32;34853;-83
2022/01/03 16:10:28;;;;;;;5.75;1.45;;;;;;;12.34;50.71;100271.91;5363579;32;34048;-72
2022/01/03 16:13:30;;;;;;;6.70;1.70;;;;;;;12.58;50.25;100264.59;5346196;32;34595;-73
2022/01/03 16:16:34;;;;;;;4.63;1.90;;;;;;;12.43;50.63;100253.87;5368536;32;35921;-69
2022/01/03 16:19:38;;;;;;;6.37;2.20;;;;;;;12.84;49.92;100260.66;5349129;32;34955;-77
2022/01/03 16:22:42;;;;;;;4.40;2.10;;;;;;;12.68;50.35;100260.56;5357522;32;35289;-70
2022/01/03 16:25:45;;;;;;;3.53;1.80;;;;;;;12.30;50.89;100263.31;5356736;32;35271;-66
2022/01/03 16:28:47;;;;;;;11.90;2.30;;;;;;;12.66;50.34;100258.00;5357936;32;34323;-72
2022/01/03 16:31:51;;;;;;;4.65;1.83;;;;;;;12.79;49.98;100263.53;5356374;32;34360;-65
2022/01/03 16:34:53;;;;;;;;;;;;;;;12.73;49.52;100264.69;5342630;32;33967;-76
2022/01/03 16:37:57;;;;;;;12.05;2.20;;;;;;;12.65;50.42;100263.38;5361818;32;34577;-76
2022/01/03 16:40:59;;;;;;;5.73;2.20;;;;;;;13.10;49.21;100262.84;5346095;32;34300;-71
2022/01/03 16:44:03;;;;;;;6.03;1.42;;;;;;;13.13;49.05;100267.09;5350650;32;36079;-72
2022/01/03 16:47:06;;;;;;;5.17;1.60;;;;;;;13.15;48.96;100273.16;5361105;32;35684;-83
2022/01/03 16:50:08;;;;;;;5.13;2.17;;;;;;;13.45;48.12;100276.84;5359624;32;34608;-73
2022/01/03 16:53:11;;;;;;;7.35;1.90;;;;;;;13.49;48.26;100278.41;5360103;32;32826;-72
2022/01/03 16:56:14;;;;;;;5.23;1.83;;;;;;;12.75;50.06;100283.06;5357244;32;33975;-71
2022/01/03 16:59:16;;;;;;;9.05;1.87;;;;;;;12.14;51.45;100286.91;5355094;32;34051;-69
2022/01/03 17:02:21;;;;;;;5.85;2.20;;;;;;;12.57;50.80;100289.25;5357130;32;35245;-73
2022/01/03 17:05:28;;;;;;;7.00;2.07;;;;;;;13.09;49.54;100287.50;5361565;32;35166;-73
2022/01/03 17:08:30;;;;;;;5.60;1.90;;;;;;;12.74;50.50;100289.28;5348876;32;34069;-69
2022/01/03 17:11:33;;;;;;;8.02;2.20;;;;;;;13.50;48.32;100290.66;5344778;32;34599;-70
2022/01/03 17:14:35;;;;;;;6.53;2.80;;;;;;;13.74;47.99;100277.97;5362278;33;35807;-74
2022/01/03 17:17:38;;;;;;;11.97;3.40;;;;;;;13.59;48.09;100293.75;5356068;33;35361;-70
2022/01/03 17:20:40;;;;;;;6.30;2.33;;;;;;;14.18;46.81;100284.41;5359820;32;34186;-70
2022/01/03 17:23:42;;;;;;;7.40;1.83;;;;;;;13.90;47.51;100275.31;5359668;32;34142;-70
2022/01/03 17:26:45;;;;;;;4.25;1.73;;;;;;;12.96;49.05;100291.72;5368456;32;34169;-73
2022/01/03 17:30:06;;;;;;;7.03;2.47;;;;;;;13.82;47.51;100296.88;5369269;32;33259;-73
2022/01/03 17:33:10;;;;;;;7.87;1.65;;;;;;;12.64;50.87;100309.13;5355206;33;34080;-71
2022/01/03 17:36:12;;;;;;;4.37;2.13;;;;;;;11.88;52.67;100301.28;5375351;32;35072;-70
2022/01/03 17:39:15;;;;;;;5.17;2.07;;;;;;;13.07;49.60;100310.47;5363190;32;34364;-74
2022/01/03 17:42:18;;;;;;;7.13;2.50;;;;;;;13.66;48.36;100298.66;5359963;32;34879;-71
2022/01/03 17:45:20;;;;;;;14.77;3.45;;;;;;;14.03;47.56;100307.22;5360903;32;33967;-73
2022/01/03 17:48:23;;;;;;;8.80;2.75;;;;;;;12.81;50.58;100319.69;5357836;33;34317;-70
2022/01/03 17:51:25;;;;;;;5.93;2.13;;;;;;;13.83;48.28;100305.66;5366101;33;34306;-72
2022/01/03 17:54:27;;;;;;;8.67;2.17;;;;;;;13.95;47.55;100301.50;5355017;32;34602;-71
2022/01/03 17:57:30;;;;;;;6.03;1.85;;;;;;;13.07;49.05;100299.06;5370019;32;34692;-72
2022/01/03 18:00:33;;;;;;;4.70;1.93;;;;;;;13.80;47.86;100287.34;5359616;32;34378;-70
2022/01/03 18:03:36;;;;;;;5.75;1.95;;;;;;;13.95;47.39;100278.56;5350095;33;34839;-70
2022/01/03 18:06:38;;;;;;;8.50;2.33;;;;;;;14.37;46.46;100261.28;5361812;33;34430;-70
2022/01/03 18:09:40;;;;;;;7.47;2.23;;;;;;;13.89;47.61;100273.63;5355637;32;34306;-70
2022/01/03 18:12:49;;;;;;;10.43;2.30;;;;;;;13.94;47.60;100268.94;5365207;33;34515;-70